sensor_id;sensor_type;location;lat;lon;timestamp;pressure;altitude;pressure_sealevel;temperature;humidity
70133;BME280;57495;49.922;7.966;2023-04-03T00:01:20;101017.84;;;4.67;80.91
70133;BME280;57495;49.922;7.966;2023-04-03T00:03:22;101030.13;;;4.68;81.39
70133;BME280;57495;49.922;7.966;2023-04-03T00:05:23;101028.28;;;4.70;80.89
70133;BME280;57495;49.922;7.966;2023-04-03T00:07:26;101030.94;;;4.70;80.70
70133;BME280;57495;49.922;7.966;2023-04-03T00:09:28;101031.53;;;4.75;81.59
70133;BME280;57495;49.922;7.966;2023-04-03T00:11:29;101025.78;;;4.67;82.08
70133;BME280;57495;49.922;7.966;2023-04-03T00:13:31;101022.97;;;4.70;82.01
70133;BME280;57495;49.922;7.966;2023-04-03T00:15:33;101020.56;;;4.65;82.39
70133;BME280;57495;49.922;7.966;2023-04-03T00:17:35;101022.19;;;4.68;82.37
70133;BME280;57495;49.922;7.966;2023-04-03T00:19:36;101027.59;;;4.67;82.52
70133;BME280;57495;49.922;7.966;2023-04-03T00:21:38;101023.28;;;4.64;82.59
70133;BME280;57495;49.922;7.966;2023-04-03T00:23:41;101028.56;;;4.64;82.32
70133;BME280;57495;49.922;7.966;2023-04-03T00:25:43;101027.72;;;4.63;82.25
70133;BME280;57495;49.922;7.966;2023-04-03T00:27:45;101028.44;;;4.67;82.33
70133;BME280;57495;49.922;7.966;2023-04-03T00:29:46;101030.13;;;4.68;82.64
70133;BME280;57495;49.922;7.966;2023-04-03T00:31:48;101025.78;;;4.67;82.28
70133;BME280;57495;49.922;7.966;2023-04-03T00:33:49;101030.13;;;4.68;82.22
70133;BME280;57495;49.922;7.966;2023-04-03T00:35:51;101035.41;;;4.68;81.66
70133;BME280;57495;49.922;7.966;2023-04-03T00:37:54;101030.13;;;4.68;81.35
70133;BME280;57495;49.922;7.966;2023-04-03T00:39:57;101031.78;;;4.71;81.93
70133;BME280;57495;49.922;7.966;2023-04-03T00:41:58;101035.41;;;4.68;82.10
70133;BME280;57495;49.922;7.966;2023-04-03T00:44:00;101033.88;;;4.64;81.46
70133;BME280;57495;49.922;7.966;2023-04-03T00:46:01;101030.31;;;4.65;80.79
70133;BME280;57495;49.922;7.966;2023-04-03T00:48:05;101027.81;;;4.62;80.93
70133;BME280;57495;49.922;7.966;2023-04-03T00:50:08;101026.63;;;4.68;81.06
70133;BME280;57495;49.922;7.966;2023-04-03T00:52:13;101028.75;;;4.61;80.88
70133;BME280;57495;49.922;7.966;2023-04-03T00:54:16;101021.47;;;4.64;80.63
70133;BME280;57495;49.922;7.966;2023-04-03T00:56:21;101029.22;;;4.52;80.49
70133;BME280;57495;49.922;7.966;2023-04-03T00:58:29;101022.97;;;4.53;80.11
70133;BME280;57495;49.922;7.966;2023-04-03T01:00:31;101016.75;;;4.54;79.47
70133;BME280;57495;49.922;7.966;2023-04-03T01:02:33;101025.97;;;4.47;79.31
70133;BME280;57495;49.922;7.966;2023-04-03T01:04:37;101015.59;;;4.42;79.44
70133;BME280;57495;49.922;7.966;2023-04-03T01:06:38;101014.66;;;4.43;79.89
70133;BME280;57495;49.922;7.966;2023-04-03T01:08:40;101019.88;;;4.44;79.06
70133;BME280;57495;49.922;7.966;2023-04-03T01:10:42;101019.13;;;4.42;79.27
70133;BME280;57495;49.922;7.966;2023-04-03T01:12:46;101017.31;;;4.43;79.13
70133;BME280;57495;49.922;7.966;2023-04-03T01:14:50;101015.38;;;4.47;79.14
70133;BME280;57495;49.922;7.966;2023-04-03T01:16:53;101010.22;;;4.43;79.74
70133;BME280;57495;49.922;7.966;2023-04-03T01:18:54;101012.56;;;4.32;79.23
70133;BME280;57495;49.922;7.966;2023-04-03T01:23:32;101015.72;;;4.56;79.51
70133;BME280;57495;49.922;7.966;2023-04-03T01:25:40;101014.72;;;4.59;79.46
70133;BME280;57495;49.922;7.966;2023-04-03T01:27:42;101006.75;;;4.59;79.15
70133;BME280;57495;49.922;7.966;2023-04-03T01:29:45;101016.22;;;4.47;78.72
70133;BME280;57495;49.922;7.966;2023-04-03T01:31:51;101013.00;;;4.40;78.21
70133;BME280;57495;49.922;7.966;2023-04-03T01:33:53;101018.63;;;4.52;76.89
70133;BME280;57495;49.922;7.966;2023-04-03T01:35:55;101018.38;;;4.56;77.64
70133;BME280;57495;49.922;7.966;2023-04-03T01:37:56;101022.56;;;4.60;78.36
70133;BME280;57495;49.922;7.966;2023-04-03T01:39:58;101012.88;;;4.61;79.54
70133;BME280;57495;49.922;7.966;2023-04-03T01:41:59;101017.97;;;4.64;78.89
70133;BME280;57495;49.922;7.966;2023-04-03T01:44:01;101019.78;;;4.63;78.17
70133;BME280;57495;49.922;7.966;2023-04-03T01:46:02;101012.88;;;4.61;76.82
70133;BME280;57495;49.922;7.966;2023-04-03T01:48:05;101011.47;;;4.54;75.56
70133;BME280;57495;49.922;7.966;2023-04-03T01:50:07;101017.34;;;4.59;75.48
70133;BME280;57495;49.922;7.966;2023-04-03T01:52:08;101015.19;;;4.67;75.78
70133;BME280;57495;49.922;7.966;2023-04-03T01:54:10;101023.97;;;4.68;76.11
70133;BME280;57495;49.922;7.966;2023-04-03T01:56:11;101017.69;;;4.70;77.12
70133;BME280;57495;49.922;7.966;2023-04-03T01:58:13;101022.09;;;4.70;77.33
70133;BME280;57495;49.922;7.966;2023-04-03T02:00:15;101016.44;;;4.60;76.52
70133;BME280;57495;49.922;7.966;2023-04-03T02:02:16;101024.06;;;4.66;75.95
70133;BME280;57495;49.922;7.966;2023-04-03T02:04:20;101018.75;;;4.66;75.91
70133;BME280;57495;49.922;7.966;2023-04-03T02:06:22;101021.25;;;4.69;75.86
70133;BME280;57495;49.922;7.966;2023-04-03T02:08:23;101014.22;;;4.68;75.71
70133;BME280;57495;49.922;7.966;2023-04-03T02:10:25;101014.06;;;4.71;76.33
70133;BME280;57495;49.922;7.966;2023-04-03T02:12:26;101018.16;;;4.61;75.59
70133;BME280;57495;49.922;7.966;2023-04-03T02:14:27;101018.16;;;4.61;75.98
70133;BME280;57495;49.922;7.966;2023-04-03T02:16:29;101017.34;;;4.59;76.63
70133;BME280;57495;49.922;7.966;2023-04-03T02:18:31;101010.38;;;4.58;76.94
70133;BME280;57495;49.922;7.966;2023-04-03T02:20:34;101014.56;;;4.62;76.73
70133;BME280;57495;49.922;7.966;2023-04-03T02:22:36;101009.34;;;4.60;77.41
70133;BME280;57495;49.922;7.966;2023-04-03T02:24:37;101011.28;;;4.57;76.50
70133;BME280;57495;49.922;7.966;2023-04-03T02:26:40;101007.56;;;4.61;77.18
70133;BME280;57495;49.922;7.966;2023-04-03T02:28:41;101005.91;;;4.58;75.51
70133;BME280;57495;49.922;7.966;2023-04-03T02:30:43;101002.03;;;4.48;77.14
70133;BME280;57495;49.922;7.966;2023-04-03T02:32:45;101004.59;;;4.50;76.52
70133;BME280;57495;49.922;7.966;2023-04-03T02:34:46;101002.91;;;4.49;77.47
70133;BME280;57495;49.922;7.966;2023-04-03T02:36:49;101001.66;;;4.56;77.69
70133;BME280;57495;49.922;7.966;2023-04-03T02:38:50;100993.16;;;4.49;77.85
70133;BME280;57495;49.922;7.966;2023-04-03T02:40:52;101008.19;;;4.49;77.81
70133;BME280;57495;49.922;7.966;2023-04-03T02:42:53;101012.94;;;4.59;79.36
70133;BME280;57495;49.922;7.966;2023-04-03T02:44:55;101011.00;;;4.63;78.27
70133;BME280;57495;49.922;7.966;2023-04-03T02:46:56;101012.53;;;4.67;77.79
70133;BME280;57495;49.922;7.966;2023-04-03T02:48:59;101014.06;;;4.71;76.87
70133;BME280;57495;49.922;7.966;2023-04-03T02:51:00;101008.78;;;4.71;78.68
70133;BME280;57495;49.922;7.966;2023-04-03T02:53:03;100998.59;;;4.63;78.41
70133;BME280;57495;49.922;7.966;2023-04-03T02:55:06;101006.31;;;4.51;79.06
70133;BME280;57495;49.922;7.966;2023-04-03T02:57:07;101007.09;;;4.53;78.53
70133;BME280;57495;49.922;7.966;2023-04-03T02:59:09;101011.13;;;4.60;79.02
70133;BME280;57495;49.922;7.966;2023-04-03T03:01:11;101007.56;;;4.61;79.13
70133;BME280;57495;49.922;7.966;2023-04-03T03:03:13;101009.66;;;4.54;80.61
70133;BME280;57495;49.922;7.966;2023-04-03T03:05:15;101016.28;;;4.63;79.55
70133;BME280;57495;49.922;7.966;2023-04-03T03:07:16;101006.38;;;4.67;80.01
70133;BME280;57495;49.922;7.966;2023-04-03T03:09:19;101009.03;;;4.67;79.53
70133;BME280;57495;49.922;7.966;2023-04-03T03:11:21;101002.63;;;4.53;80.12
70133;BME280;57495;49.922;7.966;2023-04-03T03:13:22;101019.25;;;4.39;79.71
70133;BME280;57495;49.922;7.966;2023-04-03T03:15:24;101012.09;;;4.41;80.50
70133;BME280;57495;49.922;7.966;2023-04-03T03:17:25;101015.50;;;4.43;79.98
70133;BME280;57495;49.922;7.966;2023-04-03T03:19:27;101024.84;;;4.51;80.71
70133;BME280;57495;49.922;7.966;2023-04-03T03:21:28;101025.69;;;4.51;81.04
70133;BME280;57495;49.922;7.966;2023-04-03T03:23:30;101021.09;;;4.55;81.06
70133;BME280;57495;49.922;7.966;2023-04-03T03:25:37;101015.66;;;4.58;81.54
70133;BME280;57495;49.922;7.966;2023-04-03T03:27:39;101021.66;;;4.61;81.90
70133;BME280;57495;49.922;7.966;2023-04-03T03:29:40;101018.94;;;4.63;81.53
70133;BME280;57495;49.922;7.966;2023-04-03T03:31:41;101023.28;;;4.64;80.64
70133;BME280;57495;49.922;7.966;2023-04-03T03:33:43;101022.97;;;4.70;81.25
70133;BME280;57495;49.922;7.966;2023-04-03T03:35:45;101020.34;;;4.70;80.92
70133;BME280;57495;49.922;7.966;2023-04-03T03:37:46;101028.66;;;4.62;81.71
70133;BME280;57495;49.922;7.966;2023-04-03T03:39:48;101023.47;;;4.61;81.86
70133;BME280;57495;49.922;7.966;2023-04-03T03:41:50;101027.59;;;4.67;81.79
70133;BME280;57495;49.922;7.966;2023-04-03T03:43:53;101019.53;;;4.68;81.95
70133;BME280;57495;49.922;7.966;2023-04-03T03:45:55;101023.34;;;4.62;81.25
70133;BME280;57495;49.922;7.966;2023-04-03T03:47:56;101022.34;;;4.65;80.82
70133;BME280;57495;49.922;7.966;2023-04-03T03:49:57;101025.69;;;4.51;82.01
70133;BME280;57495;49.922;7.966;2023-04-03T03:51:59;101022.91;;;4.54;81.94
70133;BME280;57495;49.922;7.966;2023-04-03T03:54:00;101029.59;;;4.44;82.42
70133;BME280;57495;49.922;7.966;2023-04-03T03:56:02;101024.22;;;4.45;82.49
70133;BME280;57495;49.922;7.966;2023-04-03T03:58:05;101016.06;;;4.50;82.52
70133;BME280;57495;49.922;7.966;2023-04-03T04:00:07;101017.38;;;4.41;82.82
70133;BME280;57495;49.922;7.966;2023-04-03T04:02:08;101016.53;;;4.41;82.87
70133;BME280;57495;49.922;7.966;2023-04-03T04:04:10;101021.91;;;4.39;83.73
70133;BME280;57495;49.922;7.966;2023-04-03T04:06:12;101023.78;;;4.37;83.49
70133;BME280;57495;49.922;7.966;2023-04-03T04:08:13;101016.31;;;4.28;83.96
70133;BME280;57495;49.922;7.966;2023-04-03T04:10:15;101015.91;;;4.36;83.81
70133;BME280;57495;49.922;7.966;2023-04-03T04:12:16;101017.28;;;4.25;83.71
70133;BME280;57495;49.922;7.966;2023-04-03T04:14:19;101016.31;;;4.28;84.20
70133;BME280;57495;49.922;7.966;2023-04-03T04:16:21;101013.03;;;4.23;84.21
70133;BME280;57495;49.922;7.966;2023-04-03T04:18:23;101019.88;;;4.27;84.39
70133;BME280;57495;49.922;7.966;2023-04-03T04:20:24;101022.06;;;4.19;84.81
70133;BME280;57495;49.922;7.966;2023-04-03T04:22:25;101024.63;;;4.20;85.42
70133;BME280;57495;49.922;7.966;2023-04-03T04:24:27;101023.94;;;4.17;85.09
70133;BME280;57495;49.922;7.966;2023-04-03T04:26:28;101024.69;;;4.19;84.98
70133;BME280;57495;49.922;7.966;2023-04-03T04:28:30;101023.44;;;4.09;85.19
70133;BME280;57495;49.922;7.966;2023-04-03T04:30:32;101020.47;;;3.97;85.11
70133;BME280;57495;49.922;7.966;2023-04-03T04:32:34;101025.56;;;4.02;84.99
70133;BME280;57495;49.922;7.966;2023-04-03T04:34:35;101027.25;;;4.03;84.74
70133;BME280;57495;49.922;7.966;2023-04-03T04:36:37;101030.91;;;4.00;85.07
70133;BME280;57495;49.922;7.966;2023-04-03T04:38:38;101029.19;;;3.99;84.16
70133;BME280;57495;49.922;7.966;2023-04-03T04:40:39;101028.09;;;4.03;84.01
70133;BME280;57495;49.922;7.966;2023-04-03T04:42:41;101028.25;;;4.00;83.19
70133;BME280;57495;49.922;7.966;2023-04-03T04:44:43;101029.97;;;4.01;82.28
70133;BME280;57495;49.922;7.966;2023-04-03T04:46:46;101027.19;;;4.04;82.73
70133;BME280;57495;49.922;7.966;2023-04-03T04:48:47;101023.75;;;4.02;82.40
70133;BME280;57495;49.922;7.966;2023-04-03T04:50:49;101028.25;;;4.00;82.05
70133;BME280;57495;49.922;7.966;2023-04-03T04:52:50;101027.56;;;3.97;83.10
70133;BME280;57495;49.922;7.966;2023-04-03T04:54:52;101026.78;;;3.95;82.61
70133;BME280;57495;49.922;7.966;2023-04-03T04:56:53;101031.69;;;4.02;82.67
70133;BME280;57495;49.922;7.966;2023-04-03T04:58:55;101038.69;;;4.03;83.16
70133;BME280;57495;49.922;7.966;2023-04-03T05:00:59;101034.53;;;3.98;83.21
70133;BME280;57495;49.922;7.966;2023-04-03T05:03:02;101037.75;;;3.87;83.61
70133;BME280;57495;49.922;7.966;2023-04-03T05:05:04;101037.09;;;3.82;82.91
70133;BME280;57495;49.922;7.966;2023-04-03T05:07:06;101033.81;;;3.77;83.47
70133;BME280;57495;49.922;7.966;2023-04-03T05:09:07;101038.47;;;3.72;82.87
70133;BME280;57495;49.922;7.966;2023-04-03T05:11:10;101050.47;;;3.79;82.48
70133;BME280;57495;49.922;7.966;2023-04-03T05:13:11;101052.13;;;3.62;82.95
70133;BME280;57495;49.922;7.966;2023-04-03T05:15:12;101053.72;;;3.66;82.54
70133;BME280;57495;49.922;7.966;2023-04-03T05:17:14;101047.63;;;3.64;81.68
70133;BME280;57495;49.922;7.966;2023-04-03T05:19:17;101054.22;;;3.56;82.60
70133;BME280;57495;49.922;7.966;2023-04-03T05:21:18;101053.34;;;3.55;80.99
70133;BME280;57495;49.922;7.966;2023-04-03T05:23:20;101059.50;;;3.56;80.41
70133;BME280;57495;49.922;7.966;2023-04-03T05:25:21;101061.63;;;3.47;80.81
70133;BME280;57495;49.922;7.966;2023-04-03T05:27:22;101066.56;;;3.55;80.37
70133;BME280;57495;49.922;7.966;2023-04-03T05:29:24;101065.94;;;3.50;79.61
70133;BME280;57495;49.922;7.966;2023-04-03T05:31:26;101068.59;;;3.50;78.42
70133;BME280;57495;49.922;7.966;2023-04-03T05:33:29;101066.19;;;3.44;78.38
70133;BME280;57495;49.922;7.966;2023-04-03T05:35:32;101070.44;;;3.48;78.46
70133;BME280;57495;49.922;7.966;2023-04-03T05:37:33;101073.94;;;3.48;78.09
70133;BME280;57495;49.922;7.966;2023-04-03T05:39:35;101073.09;;;3.48;77.71
70133;BME280;57495;49.922;7.966;2023-04-03T05:41:38;101076.09;;;3.59;78.20
70133;BME280;57495;49.922;7.966;2023-04-03T05:43:40;101080.78;;;3.53;77.40
70133;BME280;57495;49.922;7.966;2023-04-03T05:45:43;101081.38;;;3.59;77.45
70133;BME280;57495;49.922;7.966;2023-04-03T05:47:44;101090.22;;;3.58;77.80
70133;BME280;57495;49.922;7.966;2023-04-03T05:49:46;101085.66;;;3.62;77.31
70133;BME280;57495;49.922;7.966;2023-04-03T05:51:48;101080.50;;;3.59;77.32
70133;BME280;57495;49.922;7.966;2023-04-03T05:53:56;101089.38;;;3.58;76.61
70133;BME280;57495;49.922;7.966;2023-04-03T05:56:00;101089.50;;;3.55;77.67
70133;BME280;57495;49.922;7.966;2023-04-03T05:58:01;101085.88;;;3.57;77.73
70133;BME280;57495;49.922;7.966;2023-04-03T06:00:03;101085.06;;;3.55;77.20
70133;BME280;57495;49.922;7.966;2023-04-03T06:02:06;101091.31;;;3.54;77.97
70133;BME280;57495;49.922;7.966;2023-04-03T06:04:07;101083.06;;;3.60;77.14
70133;BME280;57495;49.922;7.966;2023-04-03T06:06:12;101088.09;;;3.66;76.93
70133;BME280;57495;49.922;7.966;2023-04-03T06:08:15;101087.16;;;3.67;77.57
70133;BME280;57495;49.922;7.966;2023-04-03T06:10:17;101092.56;;;3.64;77.73
70133;BME280;57495;49.922;7.966;2023-04-03T06:12:20;101094.06;;;3.70;77.53
70133;BME280;57495;49.922;7.966;2023-04-03T06:14:21;101098.50;;;3.70;77.31
70133;BME280;57495;49.922;7.966;2023-04-03T06:16:23;101102.78;;;3.53;77.21
70133;BME280;57495;49.922;7.966;2023-04-03T06:18:24;101098.47;;;3.52;77.90
70133;BME280;57495;49.922;7.966;2023-04-03T06:20:26;101106.75;;;3.63;78.12
70133;BME280;57495;49.922;7.966;2023-04-03T06:22:27;101106.81;;;3.81;76.93
70133;BME280;57495;49.922;7.966;2023-04-03T06:24:31;101102.66;;;3.75;76.96
70133;BME280;57495;49.922;7.966;2023-04-03T06:26:33;101102.09;;;3.68;77.75
70133;BME280;57495;49.922;7.966;2023-04-03T06:28:34;101104.94;;;3.64;77.35
70133;BME280;57495;49.922;7.966;2023-04-03T06:30:36;101111.50;;;3.55;76.78
70133;BME280;57495;49.922;7.966;2023-04-03T06:32:37;101113.94;;;3.79;77.14
70133;BME280;57495;49.922;7.966;2023-04-03T06:34:39;101115.53;;;4.02;77.21
70133;BME280;57495;49.922;7.966;2023-04-03T06:36:41;101114.19;;;4.30;76.18
70133;BME280;57495;49.922;7.966;2023-04-03T06:38:43;101114.72;;;4.36;76.07
70133;BME280;57495;49.922;7.966;2023-04-03T06:40:46;101119.38;;;4.31;74.29
70133;BME280;57495;49.922;7.966;2023-04-03T06:42:47;101127.25;;;4.33;75.84
70133;BME280;57495;49.922;7.966;2023-04-03T06:44:49;101118.53;;;4.31;75.60
70133;BME280;57495;49.922;7.966;2023-04-03T06:46:50;101124.22;;;4.40;75.93
70133;BME280;57495;49.922;7.966;2023-04-03T06:48:53;101131.56;;;4.53;73.86
70133;BME280;57495;49.922;7.966;2023-04-03T06:50:55;101129.47;;;4.77;73.98
70133;BME280;57495;49.922;7.966;2023-04-03T06:52:56;101129.16;;;4.83;73.57
70133;BME280;57495;49.922;7.966;2023-04-03T06:54:58;101126.66;;;4.97;74.24
70133;BME280;57495;49.922;7.966;2023-04-03T06:57:01;101131.91;;;4.81;73.33
70133;BME280;57495;49.922;7.966;2023-04-03T06:59:03;101133.59;;;4.82;74.69
70133;BME280;57495;49.922;7.966;2023-04-03T07:01:04;101133.47;;;4.86;73.54
70133;BME280;57495;49.922;7.966;2023-04-03T07:03:06;101138.16;;;4.98;73.94
70133;BME280;57495;49.922;7.966;2023-04-03T07:05:08;101145.69;;;4.88;73.87
70133;BME280;57495;49.922;7.966;2023-04-03T07:07:10;101143.13;;;4.69;72.90
70133;BME280;57495;49.922;7.966;2023-04-03T07:09:11;101143.13;;;4.69;73.74
70133;BME280;57495;49.922;7.966;2023-04-03T07:11:13;101145.78;;;4.69;74.13
70133;BME280;57495;49.922;7.966;2023-04-03T07:13:16;101149.03;;;4.92;73.82
70133;BME280;57495;49.922;7.966;2023-04-03T07:15:18;101136.31;;;5.33;71.59
70133;BME280;57495;49.922;7.966;2023-04-03T07:17:19;101148.88;;;5.46;70.92
70133;BME280;57495;49.922;7.966;2023-04-03T07:19:21;101149.84;;;5.60;70.54
70133;BME280;57495;49.922;7.966;2023-04-03T07:21:24;101147.19;;;5.45;69.72
70133;BME280;57495;49.922;7.966;2023-04-03T07:23:26;101144.41;;;5.30;69.93
70133;BME280;57495;49.922;7.966;2023-04-03T07:25:27;101149.88;;;5.27;69.23
70133;BME280;57495;49.922;7.966;2023-04-03T07:27:29;101155.09;;;5.29;69.82
70133;BME280;57495;49.922;7.966;2023-04-03T07:29:32;101150.88;;;5.25;69.78
70133;BME280;57495;49.922;7.966;2023-04-03T07:31:33;101150.56;;;5.31;68.97
70133;BME280;57495;49.922;7.966;2023-04-03T07:33:35;101156.03;;;5.28;67.89
70133;BME280;57495;49.922;7.966;2023-04-03T07:35:37;101149.06;;;5.76;68.35
70133;BME280;57495;49.922;7.966;2023-04-03T07:37:38;101156.72;;;5.98;66.55
70133;BME280;57495;49.922;7.966;2023-04-03T07:39:43;101150.38;;;6.16;65.41
70133;BME280;57495;49.922;7.966;2023-04-03T07:41:45;101154.31;;;6.25;66.00
70133;BME280;57495;49.922;7.966;2023-04-03T07:43:46;101144.19;;;6.16;64.48
70133;BME280;57495;49.922;7.966;2023-04-03T07:45:51;101155.16;;;6.42;63.93
70133;BME280;57495;49.922;7.966;2023-04-03T07:47:54;101151.63;;;6.57;64.34
70133;BME280;57495;49.922;7.966;2023-04-03T07:49:55;101153.56;;;6.69;64.32
70133;BME280;57495;49.922;7.966;2023-04-03T07:51:58;101161.75;;;6.81;64.01
70133;BME280;57495;49.922;7.966;2023-04-03T07:53:59;101156.25;;;6.84;62.89
70133;BME280;57495;49.922;7.966;2023-04-03T07:56:01;101155.13;;;6.88;61.71
70133;BME280;57495;49.922;7.966;2023-04-03T07:58:02;101164.50;;;7.09;61.84
70133;BME280;57495;49.922;7.966;2023-04-03T08:00:05;101166.06;;;6.97;61.30
70133;BME280;57495;49.922;7.966;2023-04-03T08:02:10;101162.78;;;6.78;59.89
70133;BME280;57495;49.922;7.966;2023-04-03T08:04:11;101168.03;;;6.94;60.04
70133;BME280;57495;49.922;7.966;2023-04-03T08:06:13;101170.06;;;7.05;60.51
70133;BME280;57495;49.922;7.966;2023-04-03T08:08:18;101172.28;;;7.12;60.96
70133;BME280;57495;49.922;7.966;2023-04-03T08:10:20;101164.53;;;7.38;60.57
70133;BME280;57495;49.922;7.966;2023-04-03T08:12:21;101165.22;;;7.56;60.17
70133;BME280;57495;49.922;7.966;2023-04-03T08:14:23;101159.78;;;7.72;61.56
70133;BME280;57495;49.922;7.966;2023-04-03T08:16:24;101162.13;;;7.19;59.61
70133;BME280;57495;49.922;7.966;2023-04-03T08:18:28;101167.38;;;7.64;61.33
70133;BME280;57495;49.922;7.966;2023-04-03T08:20:29;101160.34;;;7.77;60.14
70133;BME280;57495;49.922;7.966;2023-04-03T08:22:31;101159.69;;;8.29;61.80
70133;BME280;57495;49.922;7.966;2023-04-03T08:24:33;101168.38;;;8.19;58.80
70133;BME280;57495;49.922;7.966;2023-04-03T08:26:35;101159.91;;;8.12;56.83
70133;BME280;57495;49.922;7.966;2023-04-03T08:28:36;101159.22;;;7.81;58.37
70133;BME280;57495;49.922;7.966;2023-04-03T08:30:39;101170.22;;;7.89;57.83
70133;BME280;57495;49.922;7.966;2023-04-03T08:32:41;101168.72;;;8.00;57.87
70133;BME280;57495;49.922;7.966;2023-04-03T08:34:45;101165.06;;;8.15;57.50
70133;BME280;57495;49.922;7.966;2023-04-03T08:36:47;101166.97;;;7.99;56.10
70133;BME280;57495;49.922;7.966;2023-04-03T08:38:49;101162.91;;;7.93;56.10
70133;BME280;57495;49.922;7.966;2023-04-03T08:41:00;101172.88;;;8.04;57.57
70133;BME280;57495;49.922;7.966;2023-04-03T08:43:18;101170.34;;;8.29;58.17
70133;BME280;57495;49.922;7.966;2023-04-03T08:45:29;101174.03;;;8.41;57.08
70133;BME280;57495;49.922;7.966;2023-04-03T08:47:38;101170.88;;;8.07;55.18
70133;BME280;57495;49.922;7.966;2023-04-03T08:49:42;101169.41;;;8.16;55.58
70133;BME280;57495;49.922;7.966;2023-04-03T08:51:49;101168.78;;;8.12;55.19
70133;BME280;57495;49.922;7.966;2023-04-03T08:53:56;101172.84;;;8.18;56.60
70133;BME280;57495;49.922;7.966;2023-04-03T08:56:00;101182.97;;;8.40;55.29
70133;BME280;57495;49.922;7.966;2023-04-03T08:58:06;101179.63;;;8.51;54.01
70133;BME280;57495;49.922;7.966;2023-04-03T09:00:16;101174.59;;;8.74;54.56
70133;BME280;57495;49.922;7.966;2023-04-03T09:02:25;101169.63;;;8.95;54.48
70133;BME280;57495;49.922;7.966;2023-04-03T09:04:30;101170.84;;;9.03;55.24
70133;BME280;57495;49.922;7.966;2023-04-03T09:06:33;101171.91;;;9.26;54.37
70133;BME280;57495;49.922;7.966;2023-04-03T09:08:40;101172.56;;;9.30;54.50
70133;BME280;57495;49.922;7.966;2023-04-03T09:10:44;101170.63;;;9.32;53.93
70133;BME280;57495;49.922;7.966;2023-04-03T09:12:49;101167.03;;;9.46;54.02
70133;BME280;57495;49.922;7.966;2023-04-03T09:14:59;101169.59;;;9.35;53.58
70133;BME280;57495;49.922;7.966;2023-04-03T09:17:09;101168.81;;;9.33;50.73
70133;BME280;57495;49.922;7.966;2023-04-03T09:19:18;101165.28;;;9.32;52.51
70133;BME280;57495;49.922;7.966;2023-04-03T09:21:25;101167.44;;;9.40;53.48
70133;BME280;57495;49.922;7.966;2023-04-03T09:23:32;101150.66;;;9.51;53.34
70133;BME280;57495;49.922;7.966;2023-04-03T09:25:37;101167.56;;;9.25;52.10
70133;BME280;57495;49.922;7.966;2023-04-03T09:27:39;101161.13;;;9.79;52.23
70133;BME280;57495;49.922;7.966;2023-04-03T09:29:43;101170.69;;;9.95;52.58
70133;BME280;57495;49.922;7.966;2023-04-03T09:31:48;101166.31;;;9.94;52.50
70133;BME280;57495;49.922;7.966;2023-04-03T09:33:51;101167.88;;;10.09;53.14
70133;BME280;57495;49.922;7.966;2023-04-03T09:35:53;101169.94;;;10.42;50.74
70133;BME280;57495;49.922;7.966;2023-04-03T09:37:58;101168.28;;;10.53;52.32
70133;BME280;57495;49.922;7.966;2023-04-03T09:40:00;101157.88;;;10.37;51.61
70133;BME280;57495;49.922;7.966;2023-04-03T09:42:05;101162.31;;;9.62;50.10
70133;BME280;57495;49.922;7.966;2023-04-03T09:44:21;101150.06;;;10.34;54.08
70133;BME280;57495;49.922;7.966;2023-04-03T09:46:30;101154.63;;;11.04;55.86
70133;BME280;57495;49.922;7.966;2023-04-03T09:48:31;101148.97;;;11.31;51.20
70133;BME280;57495;49.922;7.966;2023-04-03T09:50:33;101139.22;;;11.41;50.77
70133;BME280;57495;49.922;7.966;2023-04-03T09:52:35;101141.53;;;10.88;45.96
70133;BME280;57495;49.922;7.966;2023-04-03T09:54:37;101154.09;;;10.63;46.80
70133;BME280;57495;49.922;7.966;2023-04-03T09:56:41;101149.94;;;11.41;51.60
70133;BME280;57495;49.922;7.966;2023-04-03T09:59:06;101152.00;;;11.49;50.80
70133;BME280;57495;49.922;7.966;2023-04-03T10:01:22;101149.38;;;11.60;50.80
70133;BME280;57495;49.922;7.966;2023-04-03T10:03:28;101149.34;;;11.72;48.49
70133;BME280;57495;49.922;7.966;2023-04-03T10:05:33;101152.16;;;11.82;50.62
70133;BME280;57495;49.922;7.966;2023-04-03T10:07:36;101153.09;;;11.35;46.50
70133;BME280;57495;49.922;7.966;2023-04-03T10:09:39;101154.31;;;11.20;47.25
70133;BME280;57495;49.922;7.966;2023-04-03T10:11:57;101155.78;;;11.58;47.81
70133;BME280;57495;49.922;7.966;2023-04-03T10:14:02;101161.75;;;11.61;47.60
70133;BME280;57495;49.922;7.966;2023-04-03T10:16:07;101156.41;;;11.50;47.26
70133;BME280;57495;49.922;7.966;2023-04-03T10:18:29;101163.50;;;11.05;49.98
70133;BME280;57495;49.922;7.966;2023-04-03T10:20:34;101154.81;;;11.36;46.74
70133;BME280;57495;49.922;7.966;2023-04-03T10:22:42;101159.47;;;11.57;48.47
70133;BME280;57495;49.922;7.966;2023-04-03T10:24:52;101158.97;;;11.63;47.16
70133;BME280;57495;49.922;7.966;2023-04-03T10:27:04;101148.75;;;11.57;46.62
70133;BME280;57495;49.922;7.966;2023-04-03T10:29:19;101156.53;;;12.16;49.67
70133;BME280;57495;49.922;7.966;2023-04-03T10:31:27;101155.94;;;12.13;50.33
70133;BME280;57495;49.922;7.966;2023-04-03T10:33:42;101156.47;;;10.68;48.92
70133;BME280;57495;49.922;7.966;2023-04-03T10:35:53;101158.75;;;10.24;49.40
70133;BME280;57495;49.922;7.966;2023-04-03T10:38:04;101161.75;;;10.81;47.42
70133;BME280;57495;49.922;7.966;2023-04-03T10:40:18;101151.66;;;11.43;47.41
70133;BME280;57495;49.922;7.966;2023-04-03T10:42:27;101154.72;;;11.02;48.66
70133;BME280;57495;49.922;7.966;2023-04-03T10:44:37;101151.84;;;11.17;47.63
70133;BME280;57495;49.922;7.966;2023-04-03T10:46:45;101151.34;;;11.12;48.19
70133;BME280;57495;49.922;7.966;2023-04-03T10:48:56;101160.34;;;10.99;48.19
70133;BME280;57495;49.922;7.966;2023-04-03T10:51:12;101152.13;;;10.90;48.05
70133;BME280;57495;49.922;7.966;2023-04-03T10:53:24;101156.69;;;10.65;46.94
70133;BME280;57495;49.922;7.966;2023-04-03T10:55:34;101156.69;;;11.00;47.01